sensor_id;sensor_type;location;lat;lon;timestamp;P1;durP1;ratioP1;P2;durP2;ratioP2
37164;SDS011;23057;48.554;14.454;2024-03-23T00:54:16;18.20;;;9.77;;
37164;SDS011;23057;48.554;14.454;2024-03-23T00:56:47;15.80;;;9.30;;
37164;SDS011;23057;48.554;14.454;2024-03-23T00:59:18;21.33;;;9.95;;
37164;SDS011;23057;48.554;14.454;2024-03-23T01:01:49;21.27;;;11.25;;
37164;SDS011;23057;48.554;14.454;2024-03-23T01:04:20;20.05;;;10.05;;
37164;SDS011;23057;48.554;14.454;2024-03-23T01:06:51;21.35;;;10.88;;
37164;SDS011;23057;48.554;14.454;2024-03-23T01:09:22;18.40;;;10.57;;
37164;SDS011;23057;48.554;14.454;2024-03-23T01:11:53;10.90;;;7.43;;
37164;SDS011;23057;48.554;14.454;2024-03-23T01:14:24;9.57;;;7.18;;
37164;SDS011;23057;48.554;14.454;2024-03-23T01:16:55;13.07;;;8.40;;
37164;SDS011;23057;48.554;14.454;2024-03-23T01:19:26;13.98;;;7.65;;
37164;SDS011;23057;48.554;14.454;2024-03-23T01:21:56;13.20;;;8.15;;
37164;SDS011;23057;48.554;14.454;2024-03-23T01:24:27;18.85;;;10.95;;
37164;SDS011;23057;48.554;14.454;2024-03-23T01:26:58;15.07;;;9.82;;
37164;SDS011;23057;48.554;14.454;2024-03-23T01:29:29;19.90;;;10.15;;
37164;SDS011;23057;48.554;14.454;2024-03-23T01:32:00;14.05;;;9.48;;
37164;SDS011;23057;48.554;14.454;2024-03-23T01:34:31;16.75;;;9.52;;
37164;SDS011;23057;48.554;14.454;2024-03-23T01:37:02;16.50;;;10.13;;
37164;SDS011;23057;48.554;14.454;2024-03-23T01:39:33;18.30;;;11.48;;
37164;SDS011;23057;48.554;14.454;2024-03-23T01:42:04;15.35;;;9.00;;
37164;SDS011;23057;48.554;14.454;2024-03-23T01:44:35;17.13;;;9.73;;
37164;SDS011;23057;48.554;14.454;2024-03-23T01:47:06;14.23;;;9.45;;
37164;SDS011;23057;48.554;14.454;2024-03-23T01:49:37;14.35;;;9.25;;
37164;SDS011;23057;48.554;14.454;2024-03-23T01:52:09;15.13;;;9.27;;
37164;SDS011;23057;48.554;14.454;2024-03-23T01:54:40;14.35;;;8.75;;
37164;SDS011;23057;48.554;14.454;2024-03-23T01:57:11;12.80;;;8.48;;
37164;SDS011;23057;48.554;14.454;2024-03-23T01:59:43;15.35;;;8.73;;
37164;SDS011;23057;48.554;14.454;2024-03-23T02:02:14;15.90;;;8.98;;
37164;SDS011;23057;48.554;14.454;2024-03-23T02:04:47;14.77;;;8.55;;
37164;SDS011;23057;48.554;14.454;2024-03-23T02:07:18;11.45;;;7.13;;
37164;SDS011;23057;48.554;14.454;2024-03-23T02:09:49;15.88;;;8.63;;
37164;SDS011;23057;48.554;14.454;2024-03-23T02:12:22;12.20;;;7.45;;
37164;SDS011;23057;48.554;14.454;2024-03-23T02:14:53;14.18;;;8.68;;
37164;SDS011;23057;48.554;14.454;2024-03-23T02:17:24;17.33;;;8.98;;
37164;SDS011;23057;48.554;14.454;2024-03-23T02:19:54;13.77;;;8.10;;
37164;SDS011;23057;48.554;14.454;2024-03-23T02:22:34;12.70;;;7.63;;
37164;SDS011;23057;48.554;14.454;2024-03-23T02:25:09;11.15;;;7.90;;
37164;SDS011;23057;48.554;14.454;2024-03-23T02:27:40;11.30;;;7.65;;
37164;SDS011;23057;48.554;14.454;2024-03-23T02:30:11;12.48;;;8.10;;
37164;SDS011;23057;48.554;14.454;2024-03-23T02:32:42;12.70;;;8.15;;
37164;SDS011;23057;48.554;14.454;2024-03-23T02:35:12;17.02;;;8.57;;
37164;SDS011;23057;48.554;14.454;2024-03-23T02:37:43;14.93;;;8.52;;
37164;SDS011;23057;48.554;14.454;2024-03-23T02:40:19;13.50;;;8.00;;
37164;SDS011;23057;48.554;14.454;2024-03-23T02:42:51;13.05;;;8.02;;
37164;SDS011;23057;48.554;14.454;2024-03-23T02:45:22;13.27;;;8.20;;
37164;SDS011;23057;48.554;14.454;2024-03-23T02:47:53;14.27;;;8.20;;
37164;SDS011;23057;48.554;14.454;2024-03-23T02:50:24;13.43;;;8.73;;
37164;SDS011;23057;48.554;14.454;2024-03-23T02:52:55;13.30;;;8.40;;
37164;SDS011;23057;48.554;14.454;2024-03-23T02:55:26;12.05;;;8.23;;
37164;SDS011;23057;48.554;14.454;2024-03-23T02:57:57;12.23;;;8.27;;
37164;SDS011;23057;48.554;14.454;2024-03-23T03:00:31;13.70;;;8.70;;
37164;SDS011;23057;48.554;14.454;2024-03-23T03:03:02;15.50;;;8.30;;
37164;SDS011;23057;48.554;14.454;2024-03-23T03:05:34;17.75;;;8.90;;
37164;SDS011;23057;48.554;14.454;2024-03-23T03:08:05;11.75;;;8.55;;
37164;SDS011;23057;48.554;14.454;2024-03-23T03:10:36;15.07;;;10.00;;
37164;SDS011;23057;48.554;14.454;2024-03-23T03:13:07;13.75;;;9.27;;
37164;SDS011;23057;48.554;14.454;2024-03-23T03:15:39;18.02;;;10.60;;
37164;SDS011;23057;48.554;14.454;2024-03-23T03:18:14;18.27;;;10.05;;
37164;SDS011;23057;48.554;14.454;2024-03-23T03:20:45;15.43;;;10.20;;
37164;SDS011;23057;48.554;14.454;2024-03-23T03:23:15;19.80;;;10.07;;
37164;SDS011;23057;48.554;14.454;2024-03-23T03:25:48;17.35;;;10.10;;
37164;SDS011;23057;48.554;14.454;2024-03-23T03:28:18;14.70;;;9.73;;
37164;SDS011;23057;48.554;14.454;2024-03-23T03:30:50;19.05;;;10.10;;
37164;SDS011;23057;48.554;14.454;2024-03-23T03:33:21;19.23;;;9.38;;
37164;SDS011;23057;48.554;14.454;2024-03-23T03:35:52;13.57;;;8.98;;
37164;SDS011;23057;48.554;14.454;2024-03-23T03:38:23;16.00;;;10.07;;
37164;SDS011;23057;48.554;14.454;2024-03-23T03:40:54;18.85;;;10.27;;
37164;SDS011;23057;48.554;14.454;2024-03-23T03:43:25;14.93;;;9.88;;
37164;SDS011;23057;48.554;14.454;2024-03-23T03:45:56;14.02;;;9.57;;
37164;SDS011;23057;48.554;14.454;2024-03-23T03:48:30;17.27;;;9.65;;
37164;SDS011;23057;48.554;14.454;2024-03-23T03:51:01;15.90;;;10.27;;
37164;SDS011;23057;48.554;14.454;2024-03-23T03:53:33;15.68;;;10.35;;
37164;SDS011;23057;48.554;14.454;2024-03-23T03:56:04;16.88;;;10.25;;
37164;SDS011;23057;48.554;14.454;2024-03-23T03:58:35;17.55;;;10.23;;
37164;SDS011;23057;48.554;14.454;2024-03-23T04:01:06;15.85;;;10.07;;
37164;SDS011;23057;48.554;14.454;2024-03-23T04:03:37;17.20;;;11.38;;
37164;SDS011;23057;48.554;14.454;2024-03-23T04:06:18;23.45;;;13.98;;
37164;SDS011;23057;48.554;14.454;2024-03-23T04:08:50;16.55;;;10.63;;
37164;SDS011;23057;48.554;14.454;2024-03-23T04:11:21;20.63;;;10.73;;
37164;SDS011;23057;48.554;14.454;2024-03-23T04:13:51;15.63;;;9.55;;
37164;SDS011;23057;48.554;14.454;2024-03-23T04:16:28;16.80;;;9.93;;
37164;SDS011;23057;48.554;14.454;2024-03-23T04:19:05;14.40;;;9.50;;
37164;SDS011;23057;48.554;14.454;2024-03-23T04:21:37;15.55;;;10.27;;
37164;SDS011;23057;48.554;14.454;2024-03-23T04:24:09;15.40;;;9.18;;
37164;SDS011;23057;48.554;14.454;2024-03-23T04:26:40;16.38;;;10.27;;
37164;SDS011;23057;48.554;14.454;2024-03-23T04:29:13;19.58;;;10.55;;
37164;SDS011;23057;48.554;14.454;2024-03-23T04:31:44;19.35;;;10.85;;
37164;SDS011;23057;48.554;14.454;2024-03-23T04:34:14;19.63;;;10.70;;
37164;SDS011;23057;48.554;14.454;2024-03-23T04:36:45;22.27;;;11.20;;
37164;SDS011;23057;48.554;14.454;2024-03-23T04:39:16;16.10;;;10.43;;
37164;SDS011;23057;48.554;14.454;2024-03-23T04:41:47;22.30;;;12.07;;
37164;SDS011;23057;48.554;14.454;2024-03-23T04:44:18;20.88;;;11.75;;
37164;SDS011;23057;48.554;14.454;2024-03-23T04:46:49;16.02;;;11.00;;
37164;SDS011;23057;48.554;14.454;2024-03-23T04:49:20;15.38;;;10.25;;
37164;SDS011;23057;48.554;14.454;2024-03-23T04:51:51;14.18;;;10.02;;
37164;SDS011;23057;48.554;14.454;2024-03-23T04:54:22;16.25;;;11.25;;
37164;SDS011;23057;48.554;14.454;2024-03-23T04:56:53;19.15;;;11.07;;
37164;SDS011;23057;48.554;14.454;2024-03-23T04:59:24;17.08;;;9.52;;
37164;SDS011;23057;48.554;14.454;2024-03-23T05:01:55;16.98;;;11.02;;
37164;SDS011;23057;48.554;14.454;2024-03-23T05:04:27;17.30;;;10.32;;
37164;SDS011;23057;48.554;14.454;2024-03-23T05:06:58;19.85;;;11.02;;
37164;SDS011;23057;48.554;14.454;2024-03-23T05:09:29;16.23;;;10.65;;
37164;SDS011;23057;48.554;14.454;2024-03-23T05:12:00;19.77;;;10.63;;
37164;SDS011;23057;48.554;14.454;2024-03-23T05:14:31;16.83;;;10.77;;
37164;SDS011;23057;48.554;14.454;2024-03-23T05:17:02;14.50;;;10.38;;
37164;SDS011;23057;48.554;14.454;2024-03-23T05:19:34;17.00;;;10.50;;
37164;SDS011;23057;48.554;14.454;2024-03-23T05:22:05;20.42;;;10.98;;
37164;SDS011;23057;48.554;14.454;2024-03-23T05:24:36;17.23;;;10.70;;
37164;SDS011;23057;48.554;14.454;2024-03-23T05:27:07;19.30;;;11.63;;
37164;SDS011;23057;48.554;14.454;2024-03-23T05:29:38;20.75;;;12.63;;
37164;SDS011;23057;48.554;14.454;2024-03-23T05:32:08;20.73;;;12.70;;
37164;SDS011;23057;48.554;14.454;2024-03-23T05:34:39;18.95;;;12.02;;
37164;SDS011;23057;48.554;14.454;2024-03-23T05:37:10;23.25;;;13.57;;
37164;SDS011;23057;48.554;14.454;2024-03-23T05:39:41;26.83;;;15.13;;
37164;SDS011;23057;48.554;14.454;2024-03-23T05:42:12;22.48;;;13.77;;
37164;SDS011;23057;48.554;14.454;2024-03-23T05:44:44;20.42;;;12.60;;
37164;SDS011;23057;48.554;14.454;2024-03-23T05:47:16;18.65;;;12.52;;
37164;SDS011;23057;48.554;14.454;2024-03-23T05:49:47;16.63;;;11.48;;
37164;SDS011;23057;48.554;14.454;2024-03-23T05:52:18;20.95;;;12.05;;
37164;SDS011;23057;48.554;14.454;2024-03-23T05:54:51;19.60;;;12.45;;
37164;SDS011;23057;48.554;14.454;2024-03-23T05:57:22;29.05;;;16.25;;
37164;SDS011;23057;48.554;14.454;2024-03-23T05:59:53;36.78;;;19.95;;
37164;SDS011;23057;48.554;14.454;2024-03-23T06:02:24;29.55;;;16.50;;
37164;SDS011;23057;48.554;14.454;2024-03-23T06:04:55;39.47;;;21.90;;
37164;SDS011;23057;48.554;14.454;2024-03-23T06:07:26;43.08;;;22.77;;
37164;SDS011;23057;48.554;14.454;2024-03-23T06:09:57;27.98;;;17.00;;
37164;SDS011;23057;48.554;14.454;2024-03-23T06:12:28;50.03;;;23.65;;
37164;SDS011;23057;48.554;14.454;2024-03-23T06:14:59;53.58;;;25.70;;
37164;SDS011;23057;48.554;14.454;2024-03-23T06:17:30;22.35;;;14.05;;
37164;SDS011;23057;48.554;14.454;2024-03-23T06:20:01;28.38;;;17.80;;
37164;SDS011;23057;48.554;14.454;2024-03-23T06:22:32;26.10;;;14.23;;
37164;SDS011;23057;48.554;14.454;2024-03-23T06:25:03;19.42;;;11.38;;
37164;SDS011;23057;48.554;14.454;2024-03-23T06:27:35;16.02;;;10.80;;
37164;SDS011;23057;48.554;14.454;2024-03-23T06:30:06;15.18;;;9.45;;
37164;SDS011;23057;48.554;14.454;2024-03-23T06:32:38;18.38;;;10.95;;
37164;SDS011;23057;48.554;14.454;2024-03-23T06:35:09;18.50;;;10.65;;
37164;SDS011;23057;48.554;14.454;2024-03-23T06:37:39;17.58;;;11.68;;
37164;SDS011;23057;48.554;14.454;2024-03-23T06:40:11;21.85;;;11.20;;
37164;SDS011;23057;48.554;14.454;2024-03-23T06:42:42;18.25;;;11.48;;
37164;SDS011;23057;48.554;14.454;2024-03-23T06:45:13;18.00;;;10.48;;
37164;SDS011;23057;48.554;14.454;2024-03-23T06:47:44;17.17;;;9.45;;
37164;SDS011;23057;48.554;14.454;2024-03-23T06:50:15;14.90;;;8.45;;
37164;SDS011;23057;48.554;14.454;2024-03-23T06:52:46;16.17;;;8.93;;
37164;SDS011;23057;48.554;14.454;2024-03-23T06:55:17;15.52;;;9.65;;
37164;SDS011;23057;48.554;14.454;2024-03-23T06:57:48;18.63;;;10.82;;
37164;SDS011;23057;48.554;14.454;2024-03-23T07:00:18;26.98;;;13.48;;
37164;SDS011;23057;48.554;14.454;2024-03-23T07:02:50;21.10;;;12.85;;
37164;SDS011;23057;48.554;14.454;2024-03-23T07:05:21;17.48;;;10.23;;
37164;SDS011;23057;48.554;14.454;2024-03-23T07:07:52;13.73;;;9.80;;
37164;SDS011;23057;48.554;14.454;2024-03-23T07:10:23;10.30;;;7.22;;
37164;SDS011;23057;48.554;14.454;2024-03-23T07:12:54;12.20;;;7.30;;
37164;SDS011;23057;48.554;14.454;2024-03-23T07:15:25;12.13;;;7.82;;
37164;SDS011;23057;48.554;14.454;2024-03-23T07:17:56;12.23;;;6.90;;
37164;SDS011;23057;48.554;14.454;2024-03-23T07:20:27;9.25;;;6.00;;
37164;SDS011;23057;48.554;14.454;2024-03-23T07:23:00;8.73;;;5.95;;
37164;SDS011;23057;48.554;14.454;2024-03-23T07:25:31;8.65;;;5.57;;
37164;SDS011;23057;48.554;14.454;2024-03-23T07:28:02;10.02;;;5.75;;
37164;SDS011;23057;48.554;14.454;2024-03-23T07:30:33;11.90;;;6.50;;
37164;SDS011;23057;48.554;14.454;2024-03-23T07:33:04;8.57;;;4.78;;
37164;SDS011;23057;48.554;14.454;2024-03-23T07:35:35;10.38;;;6.38;;
37164;SDS011;23057;48.554;14.454;2024-03-23T07:38:06;13.00;;;6.32;;
37164;SDS011;23057;48.554;14.454;2024-03-23T07:40:36;27.00;;;12.25;;
37164;SDS011;23057;48.554;14.454;2024-03-23T07:43:07;34.08;;;16.05;;
37164;SDS011;23057;48.554;14.454;2024-03-23T07:45:38;18.27;;;9.77;;
37164;SDS011;23057;48.554;14.454;2024-03-23T07:48:09;11.93;;;7.15;;
37164;SDS011;23057;48.554;14.454;2024-03-23T07:50:40;14.05;;;6.20;;
37164;SDS011;23057;48.554;14.454;2024-03-23T07:53:11;14.13;;;7.20;;
37164;SDS011;23057;48.554;14.454;2024-03-23T07:55:42;9.48;;;5.85;;
37164;SDS011;23057;48.554;14.454;2024-03-23T07:58:25;11.55;;;5.47;;
37164;SDS011;23057;48.554;14.454;2024-03-23T08:01:03;12.70;;;6.13;;
37164;SDS011;23057;48.554;14.454;2024-03-23T08:03:38;13.68;;;6.13;;
37164;SDS011;23057;48.554;14.454;2024-03-23T08:06:14;11.45;;;5.88;;
37164;SDS011;23057;48.554;14.454;2024-03-23T08:08:51;9.85;;;5.47;;
37164;SDS011;23057;48.554;14.454;2024-03-23T08:11:30;8.70;;;4.70;;
37164;SDS011;23057;48.554;14.454;2024-03-23T08:14:04;7.75;;;4.40;;
37164;SDS011;23057;48.554;14.454;2024-03-23T08:16:35;8.63;;;5.38;;
37164;SDS011;23057;48.554;14.454;2024-03-23T08:19:06;8.82;;;5.07;;
37164;SDS011;23057;48.554;14.454;2024-03-23T08:21:38;9.95;;;5.70;;
37164;SDS011;23057;48.554;14.454;2024-03-23T08:24:09;7.93;;;4.90;;
37164;SDS011;23057;48.554;14.454;2024-03-23T08:26:40;8.02;;;4.82;;
37164;SDS011;23057;48.554;14.454;2024-03-23T08:29:11;7.32;;;4.45;;
37164;SDS011;23057;48.554;14.454;2024-03-23T08:31:42;7.63;;;5.18;;
37164;SDS011;23057;48.554;14.454;2024-03-23T08:34:13;7.47;;;4.85;;
37164;SDS011;23057;48.554;14.454;2024-03-23T08:36:44;7.28;;;5.05;;
37164;SDS011;23057;48.554;14.454;2024-03-23T08:39:14;11.02;;;4.93;;
37164;SDS011;23057;48.554;14.454;2024-03-23T08:41:45;8.18;;;5.78;;
37164;SDS011;23057;48.554;14.454;2024-03-23T08:44:16;9.05;;;5.72;;
37164;SDS011;23057;48.554;14.454;2024-03-23T08:46:47;8.80;;;5.35;;
37164;SDS011;23057;48.554;14.454;2024-03-23T08:49:18;8.65;;;4.80;;
37164;SDS011;23057;48.554;14.454;2024-03-23T08:51:50;13.60;;;6.90;;
37164;SDS011;23057;48.554;14.454;2024-03-23T08:54:21;6.75;;;4.68;;
37164;SDS011;23057;48.554;14.454;2024-03-23T08:56:53;8.70;;;4.43;;
37164;SDS011;23057;48.554;14.454;2024-03-23T08:59:24;11.02;;;4.30;;
37164;SDS011;23057;48.554;14.454;2024-03-23T09:01:54;9.43;;;5.40;;
37164;SDS011;23057;48.554;14.454;2024-03-23T09:04:26;6.20;;;4.18;;
37164;SDS011;23057;48.554;14.454;2024-03-23T09:06:57;6.80;;;4.07;;
37164;SDS011;23057;48.554;14.454;2024-03-23T09:09:29;6.85;;;4.35;;
37164;SDS011;23057;48.554;14.454;2024-03-23T09:12:00;5.90;;;3.90;;
37164;SDS011;23057;48.554;14.454;2024-03-23T09:14:32;6.70;;;3.88;;
37164;SDS011;23057;48.554;14.454;2024-03-23T09:17:04;4.28;;;2.33;;
37164;SDS011;23057;48.554;14.454;2024-03-23T09:19:35;2.92;;;1.92;;
37164;SDS011;23057;48.554;14.454;2024-03-23T09:22:06;3.95;;;2.15;;
37164;SDS011;23057;48.554;14.454;2024-03-23T09:24:38;9.95;;;3.28;;
37164;SDS011;23057;48.554;14.454;2024-03-23T09:27:09;3.20;;;2.00;;
37164;SDS011;23057;48.554;14.454;2024-03-23T09:29:40;3.85;;;2.22;;
37164;SDS011;23057;48.554;14.454;2024-03-23T09:32:11;5.43;;;1.95;;
37164;SDS011;23057;48.554;14.454;2024-03-23T09:34:42;5.15;;;2.38;;
37164;SDS011;23057;48.554;14.454;2024-03-23T09:37:13;4.95;;;2.20;;
37164;SDS011;23057;48.554;14.454;2024-03-23T09:39:43;5.03;;;2.50;;
37164;SDS011;23057;48.554;14.454;2024-03-23T09:42:14;6.22;;;1.95;;
37164;SDS011;23057;48.554;14.454;2024-03-23T09:44:46;6.97;;;3.25;;
37164;SDS011;23057;48.554;14.454;2024-03-23T09:47:21;6.50;;;2.15;;
37164;SDS011;23057;48.554;14.454;2024-03-23T09:49:55;5.78;;;2.55;;
37164;SDS011;23057;48.554;14.454;2024-03-23T09:52:26;4.97;;;3.20;;
37164;SDS011;23057;48.554;14.454;2024-03-23T09:54:57;3.35;;;2.33;;
37164;SDS011;23057;48.554;14.454;2024-03-23T09:57:28;5.82;;;3.35;;
37164;SDS011;23057;48.554;14.454;2024-03-23T09:59:59;5.00;;;3.50;;
37164;SDS011;23057;48.554;14.454;2024-03-23T10:02:30;7.75;;;3.30;;
37164;SDS011;23057;48.554;14.454;2024-03-23T10:05:02;7.13;;;3.33;;
37164;SDS011;23057;48.554;14.454;2024-03-23T10:07:34;4.72;;;2.80;;
37164;SDS011;23057;48.554;14.454;2024-03-23T10:10:10;4.80;;;3.08;;
37164;SDS011;23057;48.554;14.454;2024-03-23T10:12:45;6.88;;;3.00;;
37164;SDS011;23057;48.554;14.454;2024-03-23T10:15:22;14.30;;;3.13;;
37164;SDS011;23057;48.554;14.454;2024-03-23T10:17:55;6.57;;;2.60;;
37164;SDS011;23057;48.554;14.454;2024-03-23T10:20:26;10.90;;;2.95;;
37164;SDS011;23057;48.554;14.454;2024-03-23T10:22:57;9.95;;;2.60;;
37164;SDS011;23057;48.554;14.454;2024-03-23T10:25:28;3.38;;;2.13;;
37164;SDS011;23057;48.554;14.454;2024-03-23T10:27:59;4.20;;;1.48;;
37164;SDS011;23057;48.554;14.454;2024-03-23T10:30:31;9.73;;;2.78;;
37164;SDS011;23057;48.554;14.454;2024-03-23T10:33:08;7.15;;;2.10;;
37164;SDS011;23057;48.554;14.454;2024-03-23T10:35:41;4.57;;;2.15;;
37164;SDS011;23057;48.554;14.454;2024-03-23T10:38:13;2.42;;;1.70;;
37164;SDS011;23057;48.554;14.454;2024-03-23T10:40:44;1.45;;;1.33;;
37164;SDS011;23057;48.554;14.454;2024-03-23T10:43:15;2.88;;;1.48;;
37164;SDS011;23057;48.554;14.454;2024-03-23T10:45:47;2.78;;;1.48;;
37164;SDS011;23057;48.554;14.454;2024-03-23T10:48:20;2.42;;;1.90;;
37164;SDS011;23057;48.554;14.454;2024-03-23T10:50:51;3.65;;;1.30;;
37164;SDS011;23057;48.554;14.454;2024-03-23T10:53:25;3.10;;;2.65;;
37164;SDS011;23057;48.554;14.454;2024-03-23T10:55:58;3.28;;;2.20;;
37164;SDS011;23057;48.554;14.454;2024-03-23T10:58:40;2.38;;;1.67;;
37164;SDS011;23057;48.554;14.454;2024-03-23T11:01:18;3.27;;;1.70;;
37164;SDS011;23057;48.554;14.454;2024-03-23T11:03:49;3.05;;;1.73;;
37164;SDS011;23057;48.554;14.454;2024-03-23T11:06:33;1.92;;;1.52;;
37164;SDS011;23057;48.554;14.454;2024-03-23T11:09:38;3.20;;;1.07;;
37164;SDS011;23057;48.554;14.454;2024-03-23T11:12:18;1.50;;;1.00;;
37164;SDS011;23057;48.554;14.454;2024-03-23T11:17:41;1.92;;;1.27;;
37164;SDS011;23057;48.554;14.454;2024-03-23T11:20:35;1.70;;;1.10;;
37164;SDS011;23057;48.554;14.454;2024-03-23T11:23:06;2.33;;;1.10;;
37164;SDS011;23057;48.554;14.454;2024-03-23T11:25:38;0.90;;;0.77;;
37164;SDS011;23057;48.554;14.454;2024-03-23T11:28:12;1.55;;;1.05;;
37164;SDS011;23057;48.554;14.454;2024-03-23T11:30:43;1.88;;;1.00;;
37164;SDS011;23057;48.554;14.454;2024-03-23T11:33:14;1.38;;;1.08;;
37164;SDS011;23057;48.554;14.454;2024-03-23T11:35:45;4.28;;;1.30;;
37164;SDS011;23057;48.554;14.454;2024-03-23T11:38:17;2.08;;;1.50;;
37164;SDS011;23057;48.554;14.454;2024-03-23T11:40:49;2.78;;;1.90;;
37164;SDS011;23057;48.554;14.454;2024-03-23T11:43:21;4.30;;;1.38;;
37164;SDS011;23057;48.554;14.454;2024-03-23T11:45:52;2.97;;;1.30;;
37164;SDS011;23057;48.554;14.454;2024-03-23T11:48:24;3.55;;;2.13;;
37164;SDS011;23057;48.554;14.454;2024-03-23T11:50:57;3.10;;;2.47;;
37164;SDS011;23057;48.554;14.454;2024-03-23T11:53:28;3.45;;;2.50;;
37164;SDS011;23057;48.554;14.454;2024-03-23T11:56:00;2.88;;;2.10;;
37164;SDS011;23057;48.554;14.454;2024-03-23T11:58:31;3.85;;;2.25;;
37164;SDS011;23057;48.554;14.454;2024-03-23T12:01:05;4.55;;;3.20;;
37164;SDS011;23057;48.554;14.454;2024-03-23T12:03:43;4.03;;;3.13;;
37164;SDS011;23057;48.554;14.454;2024-03-23T12:06:19;1.98;;;1.50;;
37164;SDS011;23057;48.554;14.454;2024-03-23T12:08:50;2.70;;;1.55;;
37164;SDS011;23057;48.554;14.454;2024-03-23T12:11:21;2.22;;;1.60;;
37164;SDS011;23057;48.554;14.454;2024-03-23T12:13:53;2.33;;;1.88;;
37164;SDS011;23057;48.554;14.454;2024-03-23T12:19:10;2.53;;;1.65;;
37164;SDS011;23057;48.554;14.454;2024-03-23T12:21:41;2.25;;;1.65;;
37164;SDS011;23057;48.554;14.454;2024-03-23T12:24:12;3.83;;;2.28;;
37164;SDS011;23057;48.554;14.454;2024-03-23T12:26:43;2.92;;;1.80;;
37164;SDS011;23057;48.554;14.454;2024-03-23T12:34:44;2.92;;;1.90;;
37164;SDS011;23057;48.554;14.454;2024-03-23T12:37:54;2.92;;;2.40;;
37164;SDS011;23057;48.554;14.454;2024-03-23T12:40:26;4.90;;;2.63;;
37164;SDS011;23057;48.554;14.454;2024-03-23T12:43:05;5.07;;;2.78;;
37164;SDS011;23057;48.554;14.454;2024-03-23T12:45:39;3.60;;;2.80;;
37164;SDS011;23057;48.554;14.454;2024-03-23T12:48:17;4.10;;;2.67;;
37164;SDS011;23057;48.554;14.454;2024-03-23T13:13:44;3.75;;;2.78;;
37164;SDS011;23057;48.554;14.454;2024-03-23T13:16:15;2.95;;;2.60;;
37164;SDS011;23057;48.554;14.454;2024-03-23T13:18:48;4.35;;;2.83;;
37164;SDS011;23057;48.554;14.454;2024-03-23T13:21:19;4.30;;;2.83;;
37164;SDS011;23057;48.554;14.454;2024-03-23T13:23:51;2.90;;;2.25;;
37164;SDS011;23057;48.554;14.454;2024-03-23T13:26:25;4.78;;;4.07;;
37164;SDS011;23057;48.554;14.454;2024-03-23T13:28:58;6.50;;;5.35;;
37164;SDS011;23057;48.554;14.454;2024-03-23T13:31:31;2.97;;;1.90;;
37164;SDS011;23057;48.554;14.454;2024-03-23T13:34:05;2.15;;;1.85;;
37164;SDS011;23057;48.554;14.454;2024-03-23T13:36:45;1.85;;;1.38;;
37164;SDS011;23057;48.554;14.454;2024-03-23T13:39:17;2.90;;;1.70;;
37164;SDS011;23057;48.554;14.454;2024-03-23T13:41:48;2.88;;;1.65;;
37164;SDS011;23057;48.554;14.454;2024-03-23T13:44:19;9.82;;;6.47;;
37164;SDS011;23057;48.554;14.454;2024-03-23T13:46:50;14.02;;;8.20;;
37164;SDS011;23057;48.554;14.454;2024-03-23T13:49:28;17.13;;;10.40;;
37164;SDS011;23057;48.554;14.454;2024-03-23T13:52:02;26.95;;;14.63;;
37164;SDS011;23057;48.554;14.454;2024-03-23T13:54:33;12.10;;;7.95;;
37164;SDS011;23057;48.554;14.454;2024-03-23T13:57:05;10.80;;;7.55;;
37164;SDS011;23057;48.554;14.454;2024-03-23T13:59:36;11.07;;;7.90;;
37164;SDS011;23057;48.554;14.454;2024-03-23T14:02:07;6.10;;;4.13;;
37164;SDS011;23057;48.554;14.454;2024-03-23T14:04:38;5.50;;;4.40;;
37164;SDS011;23057;48.554;14.454;2024-03-23T14:07:10;8.75;;;5.53;;
37164;SDS011;23057;48.554;14.454;2024-03-23T14:09:43;9.13;;;7.35;;
37164;SDS011;23057;48.554;14.454;2024-03-23T14:12:15;3.35;;;2.53;;
37164;SDS011;23057;48.554;14.454;2024-03-23T14:14:47;26.60;;;17.23;;
37164;SDS011;23057;48.554;14.454;2024-03-23T14:17:18;33.00;;;29.30;;
37164;SDS011;23057;48.554;14.454;2024-03-23T14:19:50;15.48;;;14.00;;
37164;SDS011;23057;48.554;14.454;2024-03-23T14:22:21;7.30;;;6.55;;
37164;SDS011;23057;48.554;14.454;2024-03-23T14:24:53;4.40;;;4.00;;
37164;SDS011;23057;48.554;14.454;2024-03-23T14:27:26;3.10;;;2.63;;
37164;SDS011;23057;48.554;14.454;2024-03-23T14:29:59;5.18;;;3.03;;
37164;SDS011;23057;48.554;14.454;2024-03-23T14:32:31;11.23;;;10.05;;
37164;SDS011;23057;48.554;14.454;2024-03-23T14:35:04;6.03;;;5.43;;
37164;SDS011;23057;48.554;14.454;2024-03-23T14:37:40;6.10;;;5.32;;
37164;SDS011;23057;48.554;14.454;2024-03-23T14:40:12;5.10;;;4.60;;
37164;SDS011;23057;48.554;14.454;2024-03-23T14:42:44;3.80;;;3.45;;
37164;SDS011;23057;48.554;14.454;2024-03-23T14:45:15;3.10;;;2.70;;
37164;SDS011;23057;48.554;14.454;2024-03-23T14:47:46;2.80;;;2.08;;
37164;SDS011;23057;48.554;14.454;2024-03-23T14:50:21;3.97;;;2.60;;
37164;SDS011;23057;48.554;14.454;2024-03-23T14:52:52;2.97;;;2.00;;
37164;SDS011;23057;48.554;14.454;2024-03-23T14:55:26;3.05;;;2.35;;
37164;SDS011;23057;48.554;14.454;2024-03-23T14:57:58;3.40;;;2.83;;
37164;SDS011;23057;48.554;14.454;2024-03-23T15:00:31;5.18;;;3.75;;
37164;SDS011;23057;48.554;14.454;2024-03-23T15:03:04;4.93;;;3.65;;
37164;SDS011;23057;48.554;14.454;2024-03-23T15:05:36;6.93;;;4.63;;
37164;SDS011;23057;48.554;14.454;2024-03-23T15:08:07;5.22;;;3.70;;
37164;SDS011;23057;48.554;14.454;2024-03-23T15:10:39;3.95;;;2.70;;
37164;SDS011;23057;48.554;14.454;2024-03-23T15:13:11;41.67;;;25.10;;
37164;SDS011;23057;48.554;14.454;2024-03-23T15:15:45;115.93;;;59.58;;
37164;SDS011;23057;48.554;14.454;2024-03-23T15:18:18;65.82;;;39.83;;
37164;SDS011;23057;48.554;14.454;2024-03-23T15:20:56;27.80;;;23.20;;
37164;SDS011;23057;48.554;14.454;2024-03-23T15:23:34;25.75;;;17.63;;
37164;SDS011;23057;48.554;14.454;2024-03-23T15:26:05;29.27;;;25.08;;
37164;SDS011;23057;48.554;14.454;2024-03-23T15:28:36;17.80;;;15.60;;
37164;SDS011;23057;48.554;14.454;2024-03-23T15:31:29;20.83;;;16.38;;
37164;SDS011;23057;48.554;14.454;2024-03-23T15:34:05;26.85;;;22.40;;
37164;SDS011;23057;48.554;14.454;2024-03-23T15:36:40;17.38;;;10.90;;
37164;SDS011;23057;48.554;14.454;2024-03-23T15:39:12;9.30;;;6.78;;
37164;SDS011;23057;48.554;14.454;2024-03-23T15:41:45;5.88;;;4.97;;
37164;SDS011;23057;48.554;14.454;2024-03-23T15:44:17;5.40;;;4.90;;
37164;SDS011;23057;48.554;14.454;2024-03-23T15:46:50;7.90;;;6.70;;
37164;SDS011;23057;48.554;14.454;2024-03-23T15:49:21;4.22;;;3.80;;
37164;SDS011;23057;48.554;14.454;2024-03-23T15:51:52;4.00;;;2.60;;
37164;SDS011;23057;48.554;14.454;2024-03-23T15:54:23;2.15;;;1.80;;
37164;SDS011;23057;48.554;14.454;2024-03-23T15:56:55;2.67;;;1.67;;
37164;SDS011;23057;48.554;14.454;2024-03-23T15:59:27;4.38;;;1.92;;
37164;SDS011;23057;48.554;14.454;2024-03-23T16:02:00;1.90;;;1.52;;
37164;SDS011;23057;48.554;14.454;2024-03-23T16:04:32;4.00;;;2.00;;
37164;SDS011;23057;48.554;14.454;2024-03-23T16:07:03;5.28;;;3.10;;
37164;SDS011;23057;48.554;14.454;2024-03-23T16:09:34;4.80;;;2.22;;
37164;SDS011;23057;48.554;14.454;2024-03-23T16:12:06;2.35;;;1.70;;
37164;SDS011;23057;48.554;14.454;2024-03-23T16:14:37;2.20;;;1.77;;
37164;SDS011;23057;48.554;14.454;2024-03-23T16:17:08;2.08;;;1.42;;
37164;SDS011;23057;48.554;14.454;2024-03-23T16:19:39;2.17;;;1.38;;